sensor_id;sensor_type;location;lat;lon;timestamp;temperature;humidity
54622;DHT22;40521;53.146;6.556;2023-02-28T00:05:51;4.00;99.90
54622;DHT22;40521;53.146;6.556;2023-02-28T00:08:43;2.60;99.90
54622;DHT22;40521;53.146;6.556;2023-02-28T00:17:06;3.50;99.90
54622;DHT22;40521;53.146;6.556;2023-02-28T00:19:52;3.90;99.90
54622;DHT22;40521;53.146;6.556;2023-02-28T00:25:36;3.80;99.90
54622;DHT22;40521;53.146;6.556;2023-02-28T00:34:57;3.30;99.90
54622;DHT22;40521;53.146;6.556;2023-02-28T00:42:12;0.70;99.90
54622;DHT22;40521;53.146;6.556;2023-02-28T00:57:32;1.50;99.90
54622;DHT22;40521;53.146;6.556;2023-02-28T01:00:25;3.30;99.90
54622;DHT22;40521;53.146;6.556;2023-02-28T01:19:53;1.00;99.90
54622;DHT22;40521;53.146;6.556;2023-02-28T01:29:39;1.80;99.90
54622;DHT22;40521;53.146;6.556;2023-02-28T01:39:39;2.20;99.90
54622;DHT22;40521;53.146;6.556;2023-02-28T01:42:37;0.90;99.90
54622;DHT22;40521;53.146;6.556;2023-02-28T01:45:40;4.50;99.90
54622;DHT22;40521;53.146;6.556;2023-02-28T01:51:22;3.30;99.90
54622;DHT22;40521;53.146;6.556;2023-02-28T01:54:02;0.70;99.90
54622;DHT22;40521;53.146;6.556;2023-02-28T01:57:03;3.40;99.90
54622;DHT22;40521;53.146;6.556;2023-02-28T02:02:51;5.20;99.90
54622;DHT22;40521;53.146;6.556;2023-02-28T02:05:28;2.30;99.90
54622;DHT22;40521;53.146;6.556;2023-02-28T02:11:20;1.60;99.90
54622;DHT22;40521;53.146;6.556;2023-02-28T02:17:03;3.80;99.90
54622;DHT22;40521;53.146;6.556;2023-02-28T02:46:57;6.40;99.90
54622;DHT22;40521;53.146;6.556;2023-02-28T02:49:58;6.60;99.90
54622;DHT22;40521;53.146;6.556;2023-02-28T02:53:09;1.80;99.90
54622;DHT22;40521;53.146;6.556;2023-02-28T02:55:59;3.70;99.90
54622;DHT22;40521;53.146;6.556;2023-02-28T03:05:42;2.10;99.90
54622;DHT22;40521;53.146;6.556;2023-02-28T03:08:38;2.10;99.90
54622;DHT22;40521;53.146;6.556;2023-02-28T03:45:41;2.00;99.90
54622;DHT22;40521;53.146;6.556;2023-02-28T04:02:12;5.40;99.90
54622;DHT22;40521;53.146;6.556;2023-02-28T04:28:36;3.40;99.90
54622;DHT22;40521;53.146;6.556;2023-02-28T05:07:54;3.00;99.90
54622;DHT22;40521;53.146;6.556;2023-02-28T05:17:13;3.00;99.90
54622;DHT22;40521;53.146;6.556;2023-02-28T05:23:16;2.10;99.90
54622;DHT22;40521;53.146;6.556;2023-02-28T05:26:24;1.60;99.90
54622;DHT22;40521;53.146;6.556;2023-02-28T05:35:24;5.10;99.90
54622;DHT22;40521;53.146;6.556;2023-02-28T05:51:58;2.40;99.90
54622;DHT22;40521;53.146;6.556;2023-02-28T06:18:48;2.70;99.90
54622;DHT22;40521;53.146;6.556;2023-02-28T06:28:12;2.80;99.90
54622;DHT22;40521;53.146;6.556;2023-02-28T06:37:48;2.70;99.90
54622;DHT22;40521;53.146;6.556;2023-02-28T06:53:48;0.60;99.90
54622;DHT22;40521;53.146;6.556;2023-02-28T07:03:29;1.40;99.90
54622;DHT22;40521;53.146;6.556;2023-02-28T07:06:23;2.60;99.90
54622;DHT22;40521;53.146;6.556;2023-02-28T07:15:30;2.10;99.90
54622;DHT22;40521;53.146;6.556;2023-02-28T07:21:37;5.20;99.90
54622;DHT22;40521;53.146;6.556;2023-02-28T07:24:40;0.10;99.90
54622;DHT22;40521;53.146;6.556;2023-02-28T07:30:35;-0.70;99.90
54622;DHT22;40521;53.146;6.556;2023-02-28T07:33:32;1.90;99.90
54622;DHT22;40521;53.146;6.556;2023-02-28T08:08:53;3.00;99.90
54622;DHT22;40521;53.146;6.556;2023-02-28T08:11:32;2.90;99.90
54622;DHT22;40521;53.146;6.556;2023-02-28T08:14:27;1.50;99.90
54622;DHT22;40521;53.146;6.556;2023-02-28T08:19:50;1.50;99.90
54622;DHT22;40521;53.146;6.556;2023-02-28T08:22:27;2.70;99.90
54622;DHT22;40521;53.146;6.556;2023-02-28T08:25:31;2.80;99.90
54622;DHT22;40521;53.146;6.556;2023-02-28T08:30:48;3.30;99.90
54622;DHT22;40521;53.146;6.556;2023-02-28T08:33:40;3.80;99.90
54622;DHT22;40521;53.146;6.556;2023-02-28T08:36:27;5.80;99.90
54622;DHT22;40521;53.146;6.556;2023-02-28T08:42:30;2.20;99.90
54622;DHT22;40521;53.146;6.556;2023-02-28T08:45:29;3.30;99.90
54622;DHT22;40521;53.146;6.556;2023-02-28T08:48:36;1.90;99.90
54622;DHT22;40521;53.146;6.556;2023-02-28T08:51:18;1.20;99.90
54622;DHT22;40521;53.146;6.556;2023-02-28T08:54:09;3.30;99.90
54622;DHT22;40521;53.146;6.556;2023-02-28T08:56:51;3.50;99.90
54622;DHT22;40521;53.146;6.556;2023-02-28T08:59:34;1.60;99.90
54622;DHT22;40521;53.146;6.556;2023-02-28T09:02:15;3.90;99.90
54622;DHT22;40521;53.146;6.556;2023-02-28T09:05:04;3.50;99.90
54622;DHT22;40521;53.146;6.556;2023-02-28T09:07:35;3.70;99.90
54622;DHT22;40521;53.146;6.556;2023-02-28T09:12:55;5.50;99.90
54622;DHT22;40521;53.146;6.556;2023-02-28T09:15:23;3.80;99.90
54622;DHT22;40521;53.146;6.556;2023-02-28T09:24:11;3.90;99.90
54622;DHT22;40521;53.146;6.556;2023-02-28T09:26:42;4.10;99.90
54622;DHT22;40521;53.146;6.556;2023-02-28T09:29:43;4.40;99.90
54622;DHT22;40521;53.146;6.556;2023-02-28T09:32:14;3.60;99.90
54622;DHT22;40521;53.146;6.556;2023-02-28T09:35:06;4.20;99.90
54622;DHT22;40521;53.146;6.556;2023-02-28T09:37:57;3.50;99.90
54622;DHT22;40521;53.146;6.556;2023-02-28T09:43:41;4.10;99.90
54622;DHT22;40521;53.146;6.556;2023-02-28T09:49:18;4.10;99.90
54622;DHT22;40521;53.146;6.556;2023-02-28T09:52:17;4.30;99.90
54622;DHT22;40521;53.146;6.556;2023-02-28T09:58:01;4.60;99.90
54622;DHT22;40521;53.146;6.556;2023-02-28T10:00:45;4.20;99.90
54622;DHT22;40521;53.146;6.556;2023-02-28T10:03:57;6.20;99.90
54622;DHT22;40521;53.146;6.556;2023-02-28T10:09:42;4.10;99.90
54622;DHT22;40521;53.146;6.556;2023-02-28T10:12:14;3.20;99.90
54622;DHT22;40521;53.146;6.556;2023-02-28T10:18:26;5.10;99.90
54622;DHT22;40521;53.146;6.556;2023-02-28T10:21:05;2.00;99.90
54622;DHT22;40521;53.146;6.556;2023-02-28T10:23:41;3.10;99.90
54622;DHT22;40521;53.146;6.556;2023-02-28T10:26:56;4.60;99.90
54622;DHT22;40521;53.146;6.556;2023-02-28T10:38:52;3.50;99.90
54622;DHT22;40521;53.146;6.556;2023-02-28T10:41:40;3.70;99.90
54622;DHT22;40521;53.146;6.556;2023-02-28T10:56:27;3.80;99.90
54622;DHT22;40521;53.146;6.556;2023-02-28T10:59:21;5.10;99.90
54622;DHT22;40521;53.146;6.556;2023-02-28T11:08:29;6.20;99.90
54622;DHT22;40521;53.146;6.556;2023-02-28T11:17:20;6.10;99.90
54622;DHT22;40521;53.146;6.556;2023-02-28T11:20:10;4.50;99.90
54622;DHT22;40521;53.146;6.556;2023-02-28T11:22:48;6.50;99.90
54622;DHT22;40521;53.146;6.556;2023-02-28T11:25:48;4.30;99.90
54622;DHT22;40521;53.146;6.556;2023-02-28T11:28:34;6.10;99.90
54622;DHT22;40521;53.146;6.556;2023-02-28T11:31:33;6.50;99.90
54622;DHT22;40521;53.146;6.556;2023-02-28T11:40:00;6.30;99.90
54622;DHT22;40521;53.146;6.556;2023-02-28T12:01:18;7.50;99.90
54622;DHT22;40521;53.146;6.556;2023-02-28T12:23:06;7.10;99.90
54622;DHT22;40521;53.146;6.556;2023-02-28T12:26:11;7.90;99.90
54622;DHT22;40521;53.146;6.556;2023-02-28T12:29:23;7.50;99.90
54622;DHT22;40521;53.146;6.556;2023-02-28T12:40:54;7.50;99.90
54622;DHT22;40521;53.146;6.556;2023-02-28T12:43:44;6.70;99.90
54622;DHT22;40521;53.146;6.556;2023-02-28T12:46:48;7.50;99.90
54622;DHT22;40521;53.146;6.556;2023-02-28T13:00:13;7.50;99.90
54622;DHT22;40521;53.146;6.556;2023-02-28T13:11:55;7.60;99.90
54622;DHT22;40521;53.146;6.556;2023-02-28T13:14:35;7.70;99.90
54622;DHT22;40521;53.146;6.556;2023-02-28T13:17:28;7.20;99.90
54622;DHT22;40521;53.146;6.556;2023-02-28T13:38:32;6.50;99.90
54622;DHT22;40521;53.146;6.556;2023-02-28T13:47:51;7.10;99.90
54622;DHT22;40521;53.146;6.556;2023-02-28T14:05:37;7.60;99.90
54622;DHT22;40521;53.146;6.556;2023-02-28T14:08:24;6.70;99.90
54622;DHT22;40521;53.146;6.556;2023-02-28T14:24:16;6.10;99.90
54622;DHT22;40521;53.146;6.556;2023-02-28T14:27:21;8.00;99.90
54622;DHT22;40521;53.146;6.556;2023-02-28T14:55:15;7.30;99.90
54622;DHT22;40521;53.146;6.556;2023-02-28T15:04:12;7.40;99.90
54622;DHT22;40521;53.146;6.556;2023-02-28T15:34:15;7.70;99.90
54622;DHT22;40521;53.146;6.556;2023-02-28T15:40:16;7.20;99.90
54622;DHT22;40521;53.146;6.556;2023-02-28T15:50:06;6.90;99.90
54622;DHT22;40521;53.146;6.556;2023-02-28T15:52:42;8.20;99.90
54622;DHT22;40521;53.146;6.556;2023-02-28T15:55:20;6.40;99.90
54622;DHT22;40521;53.146;6.556;2023-02-28T15:57:48;6.40;99.90
54622;DHT22;40521;53.146;6.556;2023-02-28T16:00:16;6.50;99.90
54622;DHT22;40521;53.146;6.556;2023-02-28T16:02:42;6.40;99.90
54622;DHT22;40521;53.146;6.556;2023-02-28T16:07:34;6.40;99.90
54622;DHT22;40521;53.146;6.556;2023-02-28T16:10:00;6.30;99.90
54622;DHT22;40521;53.146;6.556;2023-02-28T16:12:30;6.30;99.90
54622;DHT22;40521;53.146;6.556;2023-02-28T16:14:57;6.20;99.90
54622;DHT22;40521;53.146;6.556;2023-02-28T16:17:25;6.20;99.90
54622;DHT22;40521;53.146;6.556;2023-02-28T16:19:51;6.20;99.90
54622;DHT22;40521;53.146;6.556;2023-02-28T16:22:17;6.30;99.90
54622;DHT22;40521;53.146;6.556;2023-02-28T16:24:42;6.20;99.90
54622;DHT22;40521;53.146;6.556;2023-02-28T16:27:30;6.20;99.90
54622;DHT22;40521;53.146;6.556;2023-02-28T16:29:58;6.20;99.90
54622;DHT22;40521;53.146;6.556;2023-02-28T16:32:24;6.10;99.90
54622;DHT22;40521;53.146;6.556;2023-02-28T16:34:49;6.10;99.90
54622;DHT22;40521;53.146;6.556;2023-02-28T16:37:16;6.00;99.90
54622;DHT22;40521;53.146;6.556;2023-02-28T16:39:43;6.10;99.90
54622;DHT22;40521;53.146;6.556;2023-02-28T16:42:10;6.00;99.90
54622;DHT22;40521;53.146;6.556;2023-02-28T16:44:40;5.90;99.90
54622;DHT22;40521;53.146;6.556;2023-02-28T16:47:06;5.80;99.90
54622;DHT22;40521;53.146;6.556;2023-02-28T16:49:32;6.90;99.90
54622;DHT22;40521;53.146;6.556;2023-02-28T16:51:57;5.70;99.90
54622;DHT22;40521;53.146;6.556;2023-02-28T16:54:23;5.60;99.90
54622;DHT22;40521;53.146;6.556;2023-02-28T16:56:49;5.60;99.90
54622;DHT22;40521;53.146;6.556;2023-02-28T16:59:17;5.50;99.90
54622;DHT22;40521;53.146;6.556;2023-02-28T17:01:43;5.50;99.90
54622;DHT22;40521;53.146;6.556;2023-02-28T17:04:10;5.50;99.90
54622;DHT22;40521;53.146;6.556;2023-02-28T17:06:36;5.40;99.90
54622;DHT22;40521;53.146;6.556;2023-02-28T17:09:01;5.60;99.90
54622;DHT22;40521;53.146;6.556;2023-02-28T17:11:27;5.80;99.90
54622;DHT22;40521;53.146;6.556;2023-02-28T17:13:53;5.30;99.90
54622;DHT22;40521;53.146;6.556;2023-02-28T17:18:45;5.10;99.90
54622;DHT22;40521;53.146;6.556;2023-02-28T17:21:13;5.10;99.90
54622;DHT22;40521;53.146;6.556;2023-02-28T17:23:39;6.20;99.90
54622;DHT22;40521;53.146;6.556;2023-02-28T17:26:05;7.80;99.90
54622;DHT22;40521;53.146;6.556;2023-02-28T17:28:32;4.90;99.90
54622;DHT22;40521;53.146;6.556;2023-02-28T17:30:57;4.80;99.90
54622;DHT22;40521;53.146;6.556;2023-02-28T17:33:23;4.80;99.90
54622;DHT22;40521;53.146;6.556;2023-02-28T17:35:49;4.60;99.90
54622;DHT22;40521;53.146;6.556;2023-02-28T17:38:15;4.70;99.90
54622;DHT22;40521;53.146;6.556;2023-02-28T17:40:41;4.70;99.90
54622;DHT22;40521;53.146;6.556;2023-02-28T17:43:07;4.50;99.90
54622;DHT22;40521;53.146;6.556;2023-02-28T17:45:32;4.50;99.90
54622;DHT22;40521;53.146;6.556;2023-02-28T17:48:00;4.40;99.90
54622;DHT22;40521;53.146;6.556;2023-02-28T17:50:26;4.50;99.90
54622;DHT22;40521;53.146;6.556;2023-02-28T17:52:52;4.40;99.90
54622;DHT22;40521;53.146;6.556;2023-02-28T17:55:22;4.40;99.90
54622;DHT22;40521;53.146;6.556;2023-02-28T17:57:47;4.30;99.90
54622;DHT22;40521;53.146;6.556;2023-02-28T18:00:14;4.20;99.90
54622;DHT22;40521;53.146;6.556;2023-02-28T18:02:41;4.20;99.90
54622;DHT22;40521;53.146;6.556;2023-02-28T18:05:07;4.10;99.90
54622;DHT22;40521;53.146;6.556;2023-02-28T18:07:33;4.10;99.90
54622;DHT22;40521;53.146;6.556;2023-02-28T18:09:58;4.00;99.90
54622;DHT22;40521;53.146;6.556;2023-02-28T18:12:24;4.00;99.90
54622;DHT22;40521;53.146;6.556;2023-02-28T18:14:50;3.80;99.90
54622;DHT22;40521;53.146;6.556;2023-02-28T18:17:16;4.00;99.90
54622;DHT22;40521;53.146;6.556;2023-02-28T18:19:41;3.50;99.90
54622;DHT22;40521;53.146;6.556;2023-02-28T18:22:07;3.40;99.90
54622;DHT22;40521;53.146;6.556;2023-02-28T18:24:33;3.30;99.90
54622;DHT22;40521;53.146;6.556;2023-02-28T18:26:59;3.90;99.90
54622;DHT22;40521;53.146;6.556;2023-02-28T18:29:25;3.20;99.90
54622;DHT22;40521;53.146;6.556;2023-02-28T18:31:52;3.30;99.90
54622;DHT22;40521;53.146;6.556;2023-02-28T18:34:18;3.20;99.90
54622;DHT22;40521;53.146;6.556;2023-02-28T18:36:44;3.20;99.90
54622;DHT22;40521;53.146;6.556;2023-02-28T18:39:13;3.30;99.90
54622;DHT22;40521;53.146;6.556;2023-02-28T18:41:39;3.80;99.90
54622;DHT22;40521;53.146;6.556;2023-02-28T18:44:04;3.40;99.90
54622;DHT22;40521;53.146;6.556;2023-02-28T18:46:30;3.60;99.90
54622;DHT22;40521;53.146;6.556;2023-02-28T18:48:56;3.30;99.90
54622;DHT22;40521;53.146;6.556;2023-02-28T18:51:22;3.40;99.90
54622;DHT22;40521;53.146;6.556;2023-02-28T18:53:49;3.40;99.90
54622;DHT22;40521;53.146;6.556;2023-02-28T18:56:17;3.30;99.90
54622;DHT22;40521;53.146;6.556;2023-02-28T18:58:43;3.30;99.90
54622;DHT22;40521;53.146;6.556;2023-02-28T19:01:14;3.20;99.90
54622;DHT22;40521;53.146;6.556;2023-02-28T19:03:41;5.30;99.90
54622;DHT22;40521;53.146;6.556;2023-02-28T19:06:07;3.20;99.90
54622;DHT22;40521;53.146;6.556;2023-02-28T19:08:33;3.30;99.90
54622;DHT22;40521;53.146;6.556;2023-02-28T19:10:58;3.50;99.90
54622;DHT22;40521;53.146;6.556;2023-02-28T19:13:24;3.60;99.90
54622;DHT22;40521;53.146;6.556;2023-02-28T19:15:50;3.20;99.90
54622;DHT22;40521;53.146;6.556;2023-02-28T19:18:16;0.90;99.90
54622;DHT22;40521;53.146;6.556;2023-02-28T19:20:41;3.60;99.90
54622;DHT22;40521;53.146;6.556;2023-02-28T19:23:07;3.10;99.90
54622;DHT22;40521;53.146;6.556;2023-02-28T19:25:39;3.20;99.90
54622;DHT22;40521;53.146;6.556;2023-02-28T19:28:04;3.00;99.90
54622;DHT22;40521;53.146;6.556;2023-02-28T19:30:30;2.80;99.90
54622;DHT22;40521;53.146;6.556;2023-02-28T19:33:01;3.30;99.90
54622;DHT22;40521;53.146;6.556;2023-02-28T19:35:27;3.10;99.90
54622;DHT22;40521;53.146;6.556;2023-02-28T19:37:53;3.00;99.90
54622;DHT22;40521;53.146;6.556;2023-02-28T19:40:18;3.10;99.90
54622;DHT22;40521;53.146;6.556;2023-02-28T19:42:44;3.90;99.90
54622;DHT22;40521;53.146;6.556;2023-02-28T19:45:10;3.00;99.90
54622;DHT22;40521;53.146;6.556;2023-02-28T19:47:39;3.00;99.90
54622;DHT22;40521;53.146;6.556;2023-02-28T19:50:05;3.80;99.90
54622;DHT22;40521;53.146;6.556;2023-02-28T19:52:32;1.60;99.90
54622;DHT22;40521;53.146;6.556;2023-02-28T19:54:58;5.20;99.90
54622;DHT22;40521;53.146;6.556;2023-02-28T19:57:24;3.20;99.90
54622;DHT22;40521;53.146;6.556;2023-02-28T19:59:50;2.80;99.90
54622;DHT22;40521;53.146;6.556;2023-02-28T20:02:18;2.90;99.90
54622;DHT22;40521;53.146;6.556;2023-02-28T20:04:47;2.80;99.90
54622;DHT22;40521;53.146;6.556;2023-02-28T20:07:14;2.70;99.90
54622;DHT22;40521;53.146;6.556;2023-02-28T20:09:40;3.10;99.90
54622;DHT22;40521;53.146;6.556;2023-02-28T20:12:05;2.60;99.90
54622;DHT22;40521;53.146;6.556;2023-02-28T20:14:31;2.60;99.90
54622;DHT22;40521;53.146;6.556;2023-02-28T20:16:57;2.50;99.90
54622;DHT22;40521;53.146;6.556;2023-02-28T20:19:23;3.10;99.90
54622;DHT22;40521;53.146;6.556;2023-02-28T20:21:48;2.50;99.90
54622;DHT22;40521;53.146;6.556;2023-02-28T20:24:14;2.70;99.90
54622;DHT22;40521;53.146;6.556;2023-02-28T20:26:39;2.50;99.90
54622;DHT22;40521;53.146;6.556;2023-02-28T20:29:06;3.00;99.90
54622;DHT22;40521;53.146;6.556;2023-02-28T20:31:32;4.10;99.90
54622;DHT22;40521;53.146;6.556;2023-02-28T20:33:58;2.40;99.90
54622;DHT22;40521;53.146;6.556;2023-02-28T20:36:24;2.40;99.90
54622;DHT22;40521;53.146;6.556;2023-02-28T20:38:50;2.30;99.90
54622;DHT22;40521;53.146;6.556;2023-02-28T20:41:17;2.30;99.90
54622;DHT22;40521;53.146;6.556;2023-02-28T20:43:43;2.30;99.90
54622;DHT22;40521;53.146;6.556;2023-02-28T20:46:09;2.20;99.90
54622;DHT22;40521;53.146;6.556;2023-02-28T20:48:35;2.20;99.90
54622;DHT22;40521;53.146;6.556;2023-02-28T20:51:01;2.30;99.90
54622;DHT22;40521;53.146;6.556;2023-02-28T20:53:28;2.00;99.90
54622;DHT22;40521;53.146;6.556;2023-02-28T20:58:20;2.50;99.90
54622;DHT22;40521;53.146;6.556;2023-02-28T21:00:46;1.90;99.90
54622;DHT22;40521;53.146;6.556;2023-02-28T21:03:12;1.80;99.90
54622;DHT22;40521;53.146;6.556;2023-02-28T21:05:38;1.90;99.90
54622;DHT22;40521;53.146;6.556;2023-02-28T21:08:03;1.90;99.90
54622;DHT22;40521;53.146;6.556;2023-02-28T21:10:29;1.90;99.90
54622;DHT22;40521;53.146;6.556;2023-02-28T21:12:55;1.90;99.90
54622;DHT22;40521;53.146;6.556;2023-02-28T21:15:22;1.90;99.90
54622;DHT22;40521;53.146;6.556;2023-02-28T21:17:48;0.20;99.90
54622;DHT22;40521;53.146;6.556;2023-02-28T21:20:19;1.90;99.90
54622;DHT22;40521;53.146;6.556;2023-02-28T21:22:48;2.00;99.90
54622;DHT22;40521;53.146;6.556;2023-02-28T21:25:14;1.90;99.90
54622;DHT22;40521;53.146;6.556;2023-02-28T21:27:40;2.00;99.90
54622;DHT22;40521;53.146;6.556;2023-02-28T21:30:06;2.00;99.90
54622;DHT22;40521;53.146;6.556;2023-02-28T21:32:32;1.90;99.90
54622;DHT22;40521;53.146;6.556;2023-02-28T21:34:57;1.80;99.90
54622;DHT22;40521;53.146;6.556;2023-02-28T21:37:23;1.90;99.90
54622;DHT22;40521;53.146;6.556;2023-02-28T21:39:49;1.80;99.90
54622;DHT22;40521;53.146;6.556;2023-02-28T21:42:15;1.50;99.90
54622;DHT22;40521;53.146;6.556;2023-02-28T21:44:41;1.00;99.90
54622;DHT22;40521;53.146;6.556;2023-02-28T21:47:07;0.70;99.90
54622;DHT22;40521;53.146;6.556;2023-02-28T21:49:32;1.30;99.90
54622;DHT22;40521;53.146;6.556;2023-02-28T21:51:58;1.00;99.90
54622;DHT22;40521;53.146;6.556;2023-02-28T21:54:24;-1.50;99.90
54622;DHT22;40521;53.146;6.556;2023-02-28T21:56:50;0.30;99.90
54622;DHT22;40521;53.146;6.556;2023-02-28T21:59:15;0.30;99.90
54622;DHT22;40521;53.146;6.556;2023-02-28T22:01:42;2.60;99.90
54622;DHT22;40521;53.146;6.556;2023-02-28T22:04:09;0.20;99.90
54622;DHT22;40521;53.146;6.556;2023-02-28T22:06:36;1.00;99.90
54622;DHT22;40521;53.146;6.556;2023-02-28T22:09:04;1.00;99.90
54622;DHT22;40521;53.146;6.556;2023-02-28T22:11:30;0.10;99.90
54622;DHT22;40521;53.146;6.556;2023-02-28T22:13:57;0.70;99.90
54622;DHT22;40521;53.146;6.556;2023-02-28T22:16:24;-0.10;99.90
54622;DHT22;40521;53.146;6.556;2023-02-28T22:18:50;-0.10;99.90
54622;DHT22;40521;53.146;6.556;2023-02-28T22:21:16;3.10;99.90
54622;DHT22;40521;53.146;6.556;2023-02-28T22:23:42;-0.10;99.90
54622;DHT22;40521;53.146;6.556;2023-02-28T22:26:09;0.10;99.90
54622;DHT22;40521;53.146;6.556;2023-02-28T22:28:35;-0.10;99.90
54622;DHT22;40521;53.146;6.556;2023-02-28T22:31:11;3.20;99.90
54622;DHT22;40521;53.146;6.556;2023-02-28T22:33:37;-0.10;99.90
54622;DHT22;40521;53.146;6.556;2023-02-28T22:36:06;-0.40;99.90
54622;DHT22;40521;53.146;6.556;2023-02-28T22:38:32;-0.50;99.90
54622;DHT22;40521;53.146;6.556;2023-02-28T22:41:03;-0.50;99.90
54622;DHT22;40521;53.146;6.556;2023-02-28T22:43:29;-2.00;99.90
54622;DHT22;40521;53.146;6.556;2023-02-28T22:45:55;-0.40;99.90
54622;DHT22;40521;53.146;6.556;2023-02-28T22:48:20;2.00;99.90
54622;DHT22;40521;53.146;6.556;2023-02-28T22:50:46;-0.80;99.90
54622;DHT22;40521;53.146;6.556;2023-02-28T22:53:12;-0.30;99.90
54622;DHT22;40521;53.146;6.556;2023-02-28T22:55:38;-1.00;99.90
54622;DHT22;40521;53.146;6.556;2023-02-28T22:58:03;3.30;99.90
54622;DHT22;40521;53.146;6.556;2023-02-28T23:00:29;-1.10;99.90
54622;DHT22;40521;53.146;6.556;2023-02-28T23:02:55;-0.80;99.90
54622;DHT22;40521;53.146;6.556;2023-02-28T23:05:20;-1.20;99.90
54622;DHT22;40521;53.146;6.556;2023-02-28T23:07:46;-1.20;99.90
54622;DHT22;40521;53.146;6.556;2023-02-28T23:10:16;0.40;99.90
54622;DHT22;40521;53.146;6.556;2023-02-28T23:12:42;-1.40;99.90
54622;DHT22;40521;53.146;6.556;2023-02-28T23:15:20;-1.60;99.90
54622;DHT22;40521;53.146;6.556;2023-02-28T23:17:46;-1.70;99.90
54622;DHT22;40521;53.146;6.556;2023-02-28T23:20:13;1.20;99.90
54622;DHT22;40521;53.146;6.556;2023-02-28T23:22:40;0.80;99.90
54622;DHT22;40521;53.146;6.556;2023-02-28T23:25:18;2.40;99.90
54622;DHT22;40521;53.146;6.556;2023-02-28T23:27:45;-1.30;99.90
54622;DHT22;40521;53.146;6.556;2023-02-28T23:30:11;-1.70;99.90
54622;DHT22;40521;53.146;6.556;2023-02-28T23:32:38;-1.60;99.90
54622;DHT22;40521;53.146;6.556;2023-02-28T23:35:10;-1.50;99.90
54622;DHT22;40521;53.146;6.556;2023-02-28T23:37:37;-1.50;99.90
54622;DHT22;40521;53.146;6.556;2023-02-28T23:40:03;-1.50;99.90
54622;DHT22;40521;53.146;6.556;2023-02-28T23:42:30;-1.50;99.90
54622;DHT22;40521;53.146;6.556;2023-02-28T23:44:56;-1.20;99.90
54622;DHT22;40521;53.146;6.556;2023-02-28T23:47:22;-1.40;99.90
54622;DHT22;40521;53.146;6.556;2023-02-28T23:49:48;-1.50;99.90
54622;DHT22;40521;53.146;6.556;2023-02-28T23:52:14;-1.50;99.90
54622;DHT22;40521;53.146;6.556;2023-02-28T23:54:41;-1.50;99.90
54622;DHT22;40521;53.146;6.556;2023-02-28T23:57:07;-4.30;99.90
54622;DHT22;40521;53.146;6.556;2023-02-28T23:59:33;-1.20;99.90
